Pilot L239 — OJ9461 — position and weather

sailwx.info

Track history (hours):
 
Tides and Currents Weather Stations Pressure Air Temp Water Temp Dewpoint Dewpoint Depression Visibility Wind Speed Wind Dir Waves Ship Positions

Pilot L239

Last reported at 2014-Aug-20 17:33 UTC. Time now 2014-Aug-20 22:24 UTC.
Position N 60°07' E 025°04'.

Length 15 m.

Type: Pilot. MMSI: 230035440.

Date/timePositionNaut miles runAvg speedWind from/ knotsBaromVisibWave heightAir tempDewpointWater temp
2014-Aug-20 17:33N 60°07' E 025°04'1 0.3
2014-Aug-20 14:33N 60°07' E 025°02'4 1.3
2014-Aug-20 11:22N 60°04' E 024°56'6 7.9
2014-Aug-20 10:33N 60°10' E 024°58'4 0.9
2014-Aug-20 06:04N 60°06' E 024°59'4 7.5
2014-Aug-20 05:31N 60°06' E 025°07'5 5.1
2014-Aug-20 04:34N 60°04' E 024°58'2 1.7
2014-Aug-20 03:31N 60°06' E 024°59'3 0.3
2014-Aug-19 17:33N 60°09' E 024°55'5 2.2
2014-Aug-19 15:14N 60°04' E 024°56'3 0.4
2014-Aug-19 08:23N 60°07' E 024°59'4 3.8
2014-Aug-19 07:27N 60°10' E 024°58'0 0.0
2014-Aug-19 06:30N 60°10' E 024°58'4 2.3
2014-Aug-19 04:34N 60°06' E 024°58'2 0.2
2014-Aug-18 17:33N 60°07' E 025°02'6 2.8
2014-Aug-18 15:31N 60°03' E 024°54'4 0.8
2014-Aug-18 10:07N 60°07' E 024°59'1 1.1
2014-Aug-18 09:33N 60°07' E 024°58'3 2.7
2014-Aug-18 08:28N 60°10' E 024°58'0 0.0
2014-Aug-18 07:20N 60°10' E 024°58'8 7.1
2014-Aug-18 06:15N 60°06' E 025°11'7 8.7
2014-Aug-18 05:25N 60°03' E 024°58'3 0.2
2014-Aug-17 16:24N 60°06' E 024°59'3 2.5
2014-Aug-17 15:22N 60°04' E 024°57'2 1.9
2014-Aug-17 14:25N 60°03' E 024°54'4 0.5
2014-Aug-17 07:14N 60°06' E 024°58'4 5.8
2014-Aug-17 06:33N 60°10' E 024°59'4 1.3
2014-Aug-17 03:31N 60°06' E 024°58'3 0.3
2014-Aug-16 18:31N 60°09' E 024°60'5 4.4
2014-Aug-16 17:20N 60°06' E 025°08'5 2.2
2014-Aug-16 15:10N 60°06' E 024°59'3 1.8
2014-Aug-16 13:31N 60°05' E 024°54'3 1.1
2014-Aug-16 10:33N 60°06' E 024°60'5 4.9
2014-Aug-16 09:30N 60°05' E 025°09'3 3.1
2014-Aug-16 08:33N 60°07' E 025°05'6 1.0
2014-Aug-16 02:21N 60°02' E 024°57'4 0.5
2014-Aug-15 17:04N 60°06' E 024°59'5 9.3
2014-Aug-15 16:33N 60°06' E 025°09'5 2.1
2014-Aug-15 14:17N 60°06' E 024°59'4 0.8
2014-Aug-15 09:28N 60°05' E 025°07'4 0.9
2014-Aug-15 05:07N 60°06' E 024°59'0 0.1
2014-Aug-15 03:31N 60°06' E 024°59'0 0.2
2014-Aug-15 02:22N 60°06' E 024°59'0 0.0
2014-Aug-14 15:14N 60°06' E 024°59'4 5.8
2014-Aug-14 14:33N 60°03' E 024°55'5 4.7
2014-Aug-14 13:33N 60°07' E 025°00'1 0.1
2014-Aug-14 06:19N 60°06' E 024°59'0 0.1
2014-Aug-14 03:32N 60°06' E 024°59'3 2.4
2014-Aug-14 02:19N 60°03' E 024°58'5 1.7
2014-Aug-13 23:15N 60°07' E 025°05'2 0.3
2014-Aug-13 17:33N 60°07' E 025°02'5 1.8
2014-Aug-13 14:33N 60°03' E 024°53'4 2.1
2014-Aug-13 12:27N 60°06' E 024°59'1 0.4
2014-Aug-13 11:15N 60°06' E 024°58'1 0.1
2014-Aug-13 04:33N 60°06' E 024°59'0 0.1
2014-Aug-13 02:33N 60°06' E 024°58'1 0.1
2014-Aug-12 16:27N 60°07' E 024°59'4 4.5
2014-Aug-12 15:33N 60°10' E 025°01'5 4.6
2014-Aug-12 14:33N 60°06' E 024°57'3 3.3
2014-Aug-12 13:30N 60°03' E 024°54'7 3.6
2014-Aug-12 11:33N 60°06' E 025°07'2 0.7
2014-Aug-12 09:17N 60°05' E 025°09'2 0.5
2014-Aug-12 05:32N 60°06' E 025°06'5 3.8
2014-Aug-12 04:20N 60°02' E 025°04'5 5.5
2014-Aug-12 03:23N 60°06' E 024°58'0 0.0
2014-Aug-11 18:28N 60°06' E 024°59'2 2.3
2014-Aug-11 17:33N 60°08' E 024°60'4 4.2
2014-Aug-11 16:33N 60°06' E 025°07'5 4.5
2014-Aug-11 15:30N 60°03' E 025°00'4 3.1
2014-Aug-11 14:16N 60°06' E 024°59'4 1.0
2014-Aug-11 10:30N 60°10' E 024°58'4 1.1
2014-Aug-11 07:17N 60°07' E 024°59'4 2.2
2014-Aug-11 05:33N 60°10' E 025°01'5 5.0
2014-Aug-11 04:33N 60°05' E 024°58'5 2.5
2014-Aug-11 02:31N 60°06' E 025°08'  
Track history (hours):
 
Tides and Currents Weather Stations Pressure Air Temp Water Temp Dewpoint Dewpoint Depression Visibility Wind Speed Wind Dir Waves Ship Positions

Pilot L239

Last reported at 2014-Aug-20 17:33 UTC. Time now 2014-Aug-20 22:24 UTC.
Position N 60°07' E 025°04'.

Length 15 m.

Type: Pilot. MMSI: 230035440.

Date/timePositionNaut miles runAvg speedWind from/ knotsBaromVisibWave heightAir tempDewpointWater temp
2014-Aug-20 17:33N 60°07' E 025°04'1 0.3
2014-Aug-20 14:33N 60°07' E 025°02'4 1.3
2014-Aug-20 11:22N 60°04' E 024°56'6 7.9
2014-Aug-20 10:33N 60°10' E 024°58'4 0.9
2014-Aug-20 06:04N 60°06' E 024°59'4 7.5
2014-Aug-20 05:31N 60°06' E 025°07'5 5.1
2014-Aug-20 04:34N 60°04' E 024°58'2 1.7
2014-Aug-20 03:31N 60°06' E 024°59'3 0.3
2014-Aug-19 17:33N 60°09' E 024°55'5 2.2
2014-Aug-19 15:14N 60°04' E 024°56'3 0.4
2014-Aug-19 08:23N 60°07' E 024°59'4 3.8
2014-Aug-19 07:27N 60°10' E 024°58'0 0.0
2014-Aug-19 06:30N 60°10' E 024°58'4 2.3
2014-Aug-19 04:34N 60°06' E 024°58'2 0.2
2014-Aug-18 17:33N 60°07' E 025°02'6 2.8
2014-Aug-18 15:31N 60°03' E 024°54'4 0.8
2014-Aug-18 10:07N 60°07' E 024°59'1 1.1
2014-Aug-18 09:33N 60°07' E 024°58'3 2.7
2014-Aug-18 08:28N 60°10' E 024°58'0 0.0
2014-Aug-18 07:20N 60°10' E 024°58'8 7.1
2014-Aug-18 06:15N 60°06' E 025°11'7 8.7
2014-Aug-18 05:25N 60°03' E 024°58'3 0.2
2014-Aug-17 16:24N 60°06' E 024°59'3 2.5
2014-Aug-17 15:22N 60°04' E 024°57'2 1.9
2014-Aug-17 14:25N 60°03' E 024°54'4 0.5
2014-Aug-17 07:14N 60°06' E 024°58'4 5.8
2014-Aug-17 06:33N 60°10' E 024°59'4 1.3
2014-Aug-17 03:31N 60°06' E 024°58'3 0.3
2014-Aug-16 18:31N 60°09' E 024°60'5 4.4
2014-Aug-16 17:20N 60°06' E 025°08'5 2.2
2014-Aug-16 15:10N 60°06' E 024°59'3 1.8
2014-Aug-16 13:31N 60°05' E 024°54'3 1.1
2014-Aug-16 10:33N 60°06' E 024°60'5 4.9
2014-Aug-16 09:30N 60°05' E 025°09'3 3.1
2014-Aug-16 08:33N 60°07' E 025°05'6 1.0
2014-Aug-16 02:21N 60°02' E 024°57'4 0.5
2014-Aug-15 17:04N 60°06' E 024°59'5 9.3
2014-Aug-15 16:33N 60°06' E 025°09'5 2.1
2014-Aug-15 14:17N 60°06' E 024°59'4 0.8
2014-Aug-15 09:28N 60°05' E 025°07'4 0.9
2014-Aug-15 05:07N 60°06' E 024°59'0 0.1
2014-Aug-15 03:31N 60°06' E 024°59'0 0.2
2014-Aug-15 02:22N 60°06' E 024°59'0 0.0
2014-Aug-14 15:14N 60°06' E 024°59'4 5.8
2014-Aug-14 14:33N 60°03' E 024°55'5 4.7
2014-Aug-14 13:33N 60°07' E 025°00'1 0.1
2014-Aug-14 06:19N 60°06' E 024°59'0 0.1
2014-Aug-14 03:32N 60°06' E 024°59'3 2.4
2014-Aug-14 02:19N 60°03' E 024°58'5 1.7
2014-Aug-13 23:15N 60°07' E 025°05'2 0.3
2014-Aug-13 17:33N 60°07' E 025°02'5 1.8
2014-Aug-13 14:33N 60°03' E 024°53'4 2.1
2014-Aug-13 12:27N 60°06' E 024°59'1 0.4
2014-Aug-13 11:15N 60°06' E 024°58'1 0.1
2014-Aug-13 04:33N 60°06' E 024°59'0 0.1
2014-Aug-13 02:33N 60°06' E 024°58'1 0.1
2014-Aug-12 16:27N 60°07' E 024°59'4 4.5
2014-Aug-12 15:33N 60°10' E 025°01'5 4.6
2014-Aug-12 14:33N 60°06' E 024°57'3 3.3
2014-Aug-12 13:30N 60°03' E 024°54'7 3.6
2014-Aug-12 11:33N 60°06' E 025°07'2 0.7
2014-Aug-12 09:17N 60°05' E 025°09'2 0.5
2014-Aug-12 05:32N 60°06' E 025°06'5 3.8
2014-Aug-12 04:20N 60°02' E 025°04'5 5.5
2014-Aug-12 03:23N 60°06' E 024°58'0 0.0
2014-Aug-11 18:28N 60°06' E 024°59'2 2.3
2014-Aug-11 17:33N 60°08' E 024°60'4 4.2
2014-Aug-11 16:33N 60°06' E 025°07'5 4.5
2014-Aug-11 15:30N 60°03' E 025°00'4 3.1
2014-Aug-11 14:16N 60°06' E 024°59'4 1.0
2014-Aug-11 10:30N 60°10' E 024°58'4 1.1
2014-Aug-11 07:17N 60°07' E 024°59'4 2.2
2014-Aug-11 05:33N 60°10' E 025°01'5 5.0
2014-Aug-11 04:33N 60°05' E 024°58'5 2.5
2014-Aug-11 02:31N 60°06' E 025°08'  

Dump ship's entire track history